메인 페이지
METAR-TAF:

METAR-TAF

공항 :

릴롱궤, 말라위

위도: 13-47S, 경도: 033-46E, 고도: 1229m

현재 날씨관측

예보는 34분 전, 14:00시(UTC)에 발표되었습니다.
10kt
온도 21°C
습도 83%
기압 1016 hPa
시정 10km 이상
고도 2500ft 상공 구름 조금, 적란운.
고도 3000ft 상공 구름 많음
고도 9000ft 상공 구름 많음

METAR: FWKI 251400Z 19010KT 9999 FEW025CB BKN030 BKN090 21/18 Q1016 NOSIG NOSIG

시각: 16:34 (14:34 UTC)

예보

예보는 4 시간 34분 전, 10:00시(UTC)에 발표되었습니다.
예보 대상 시간: 25일 12시부터 26일 18시까지 (UTC)
12kt
시정 10km 이상
고도 2400ft 상공 구름 보통
고도 9000ft 상공 구름 많음
일시적
25일 13시부터 25일 15시까지 (UTC)
고도 2500ft 상공 구름 보통
고도 3500ft 상공 구름 많음
고도 9000ft 상공 구름 많음
약한비
전환 중
25일 16시부터 25일 18시까지 (UTC)
고도 4000ft 상공 구름 많음
고도 9000ft 상공 구름 많음

TAF: FWKI 251000Z 2512/2618 17012KT 9999 SCT024 BKN090 TEMPO 2513/2515 -RA SCT025 BKN035 BKN090 BECMG 2516/2518 BKN040 BKN090

4,000개 이상의 공항 관측 자료 및 예보 (METAR 및 TAF 보고).

지도상에서 검색 가능한 기상관측소가 노란 점과 빨간 점으로 표시되어 있습니다.

기상관측소 명을 보려면 표시 위로 마우스를 이동하세요.

날씨 관측과 예보를 보려면 클릭하세요.

지도 변경 : 확대하려면 엑스 표시가 있는 녹색 버튼, 축소하려면 빼기 표시가 있는 녹색 버튼, 다음 페이지의 지도를 보려면 녹색 화살표를 클릭하세요.


METAR-TAF: